sensor_id;sensor_type;location;lat;lon;timestamp;P1;durP1;ratioP1;P2;durP2;ratioP2
18627;SDS011;9443;50.888;10.728;2022-10-16T00:02:05;0.77;;;0.70;;
18627;SDS011;9443;50.888;10.728;2022-10-16T00:12:06;0.57;;;0.57;;
18627;SDS011;9443;50.888;10.728;2022-10-16T00:22:07;0.70;;;0.70;;
18627;SDS011;9443;50.888;10.728;2022-10-16T00:32:07;0.80;;;0.80;;
18627;SDS011;9443;50.888;10.728;2022-10-16T00:42:10;0.80;;;0.80;;
18627;SDS011;9443;50.888;10.728;2022-10-16T00:52:15;0.70;;;0.70;;
18627;SDS011;9443;50.888;10.728;2022-10-16T01:02:15;1.00;;;1.00;;
18627;SDS011;9443;50.888;10.728;2022-10-16T01:12:20;0.70;;;0.70;;
18627;SDS011;9443;50.888;10.728;2022-10-16T01:22:28;1.67;;;1.10;;
18627;SDS011;9443;50.888;10.728;2022-10-16T01:43:07;0.93;;;0.77;;
18627;SDS011;9443;50.888;10.728;2022-10-16T01:53:10;2.33;;;1.20;;
18627;SDS011;9443;50.888;10.728;2022-10-16T02:03:12;1.20;;;1.00;;
18627;SDS011;9443;50.888;10.728;2022-10-16T02:13:57;1.40;;;0.77;;
18627;SDS011;9443;50.888;10.728;2022-10-16T02:33:48;0.70;;;0.70;;
18627;SDS011;9443;50.888;10.728;2022-10-16T02:43:50;0.87;;;0.67;;
18627;SDS011;9443;50.888;10.728;2022-10-16T02:53:51;0.53;;;0.53;;
18627;SDS011;9443;50.888;10.728;2022-10-16T03:03:51;0.83;;;0.60;;
18627;SDS011;9443;50.888;10.728;2022-10-16T03:13:51;0.60;;;0.60;;
18627;SDS011;9443;50.888;10.728;2022-10-16T03:23:52;0.63;;;0.63;;
18627;SDS011;9443;50.888;10.728;2022-10-16T03:33:52;1.47;;;1.03;;
18627;SDS011;9443;50.888;10.728;2022-10-16T03:43:52;0.70;;;0.70;;
18627;SDS011;9443;50.888;10.728;2022-10-16T03:53:52;0.60;;;0.60;;
18627;SDS011;9443;50.888;10.728;2022-10-16T04:03:53;0.70;;;0.70;;
18627;SDS011;9443;50.888;10.728;2022-10-16T04:13:53;1.33;;;0.90;;
18627;SDS011;9443;50.888;10.728;2022-10-16T04:23:53;1.47;;;0.90;;
18627;SDS011;9443;50.888;10.728;2022-10-16T04:33:54;0.80;;;0.80;;
18627;SDS011;9443;50.888;10.728;2022-10-16T04:43:54;0.90;;;0.90;;
18627;SDS011;9443;50.888;10.728;2022-10-16T04:53:54;1.93;;;0.80;;
18627;SDS011;9443;50.888;10.728;2022-10-16T05:03:55;1.10;;;1.10;;
18627;SDS011;9443;50.888;10.728;2022-10-16T05:13:55;3.90;;;1.10;;
18627;SDS011;9443;50.888;10.728;2022-10-16T05:23:55;1.13;;;0.90;;
18627;SDS011;9443;50.888;10.728;2022-10-16T05:33:59;2.10;;;0.90;;
18627;SDS011;9443;50.888;10.728;2022-10-16T05:44:00;1.00;;;0.80;;
18627;SDS011;9443;50.888;10.728;2022-10-16T05:54:00;2.33;;;2.00;;
18627;SDS011;9443;50.888;10.728;2022-10-16T06:04:00;2.73;;;2.40;;
18627;SDS011;9443;50.888;10.728;2022-10-16T06:14:01;5.20;;;2.80;;
18627;SDS011;9443;50.888;10.728;2022-10-16T06:24:06;3.67;;;2.40;;
18627;SDS011;9443;50.888;10.728;2022-10-16T06:34:10;1.20;;;0.90;;
18627;SDS011;9443;50.888;10.728;2022-10-16T06:44:11;0.60;;;0.60;;
18627;SDS011;9443;50.888;10.728;2022-10-16T06:54:11;0.80;;;0.63;;
18627;SDS011;9443;50.888;10.728;2022-10-16T07:04:12;0.50;;;0.50;;
18627;SDS011;9443;50.888;10.728;2022-10-16T07:24:18;1.13;;;0.80;;
18627;SDS011;9443;50.888;10.728;2022-10-16T07:34:18;0.87;;;0.63;;
18627;SDS011;9443;50.888;10.728;2022-10-16T07:44:19;0.83;;;0.40;;
18627;SDS011;9443;50.888;10.728;2022-10-16T07:54:19;0.90;;;0.60;;
18627;SDS011;9443;50.888;10.728;2022-10-16T08:04:19;0.50;;;0.50;;
18627;SDS011;9443;50.888;10.728;2022-10-16T08:14:20;0.40;;;0.40;;
18627;SDS011;9443;50.888;10.728;2022-10-16T08:24:20;0.60;;;0.60;;
18627;SDS011;9443;50.888;10.728;2022-10-16T08:34:20;0.60;;;0.60;;
18627;SDS011;9443;50.888;10.728;2022-10-16T08:44:24;0.50;;;0.50;;
18627;SDS011;9443;50.888;10.728;2022-10-16T08:54:37;0.57;;;0.57;;
18627;SDS011;9443;50.888;10.728;2022-10-16T09:04:46;0.90;;;0.55;;
18627;SDS011;9443;50.888;10.728;2022-10-16T09:15:02;0.77;;;0.60;;
18627;SDS011;9443;50.888;10.728;2022-10-16T09:25:15;1.08;;;0.70;;
18627;SDS011;9443;50.888;10.728;2022-10-16T09:35:18;1.15;;;0.80;;
18627;SDS011;9443;50.888;10.728;2022-10-16T09:45:20;0.80;;;0.80;;
18627;SDS011;9443;50.888;10.728;2022-10-16T09:55:21;2.70;;;0.77;;
18627;SDS011;9443;50.888;10.728;2022-10-16T10:05:26;0.70;;;0.70;;
18627;SDS011;9443;50.888;10.728;2022-10-16T10:15:29;0.68;;;0.68;;
18627;SDS011;9443;50.888;10.728;2022-10-16T10:36:03;1.23;;;1.00;;
18627;SDS011;9443;50.888;10.728;2022-10-16T10:46:09;0.98;;;0.90;;
18627;SDS011;9443;50.888;10.728;2022-10-16T11:06:25;1.40;;;1.30;;
18627;SDS011;9443;50.888;10.728;2022-10-16T11:16:29;2.30;;;1.00;;
18627;SDS011;9443;50.888;10.728;2022-10-16T11:26:35;2.47;;;2.00;;
18627;SDS011;9443;50.888;10.728;2022-10-16T11:36:41;2.65;;;1.70;;
18627;SDS011;9443;50.888;10.728;2022-10-16T11:46:51;6.88;;;1.65;;
18627;SDS011;9443;50.888;10.728;2022-10-16T11:57:08;1.48;;;0.68;;
18627;SDS011;9443;50.888;10.728;2022-10-16T12:07:14;0.80;;;0.80;;
18627;SDS011;9443;50.888;10.728;2022-10-16T12:27:32;0.57;;;0.57;;
18627;SDS011;9443;50.888;10.728;2022-10-16T12:37:33;0.75;;;0.63;;
18627;SDS011;9443;50.888;10.728;2022-10-16T12:47:37;0.60;;;0.60;;
18627;SDS011;9443;50.888;10.728;2022-10-16T13:28:48;1.10;;;0.80;;
18627;SDS011;9443;50.888;10.728;2022-10-16T13:38:58;1.35;;;0.43;;
18627;SDS011;9443;50.888;10.728;2022-10-16T13:49:02;0.60;;;0.60;;
18627;SDS011;9443;50.888;10.728;2022-10-16T13:59:05;1.23;;;0.70;;
18627;SDS011;9443;50.888;10.728;2022-10-16T14:09:08;1.42;;;0.80;;
18627;SDS011;9443;50.888;10.728;2022-10-16T14:19:23;0.75;;;0.75;;
18627;SDS011;9443;50.888;10.728;2022-10-16T14:29:26;1.13;;;0.70;;
18627;SDS011;9443;50.888;10.728;2022-10-16T14:39:27;0.90;;;0.90;;
18627;SDS011;9443;50.888;10.728;2022-10-16T14:49:27;1.58;;;1.23;;
18627;SDS011;9443;50.888;10.728;2022-10-16T14:59:38;2.42;;;1.73;;
18627;SDS011;9443;50.888;10.728;2022-10-16T15:09:40;4.13;;;3.08;;
18627;SDS011;9443;50.888;10.728;2022-10-16T15:19:40;1.70;;;1.05;;
18627;SDS011;9443;50.888;10.728;2022-10-16T15:29:41;3.95;;;2.38;;
18627;SDS011;9443;50.888;10.728;2022-10-16T15:39:41;1.23;;;0.98;;
18627;SDS011;9443;50.888;10.728;2022-10-16T15:49:41;1.15;;;1.05;;
18627;SDS011;9443;50.888;10.728;2022-10-16T15:59:41;2.00;;;1.70;;
18627;SDS011;9443;50.888;10.728;2022-10-16T16:09:42;10.35;;;7.43;;
18627;SDS011;9443;50.888;10.728;2022-10-16T16:19:45;6.70;;;4.75;;
18627;SDS011;9443;50.888;10.728;2022-10-16T16:29:46;3.05;;;1.92;;
18627;SDS011;9443;50.888;10.728;2022-10-16T16:39:46;1.85;;;1.48;;
18627;SDS011;9443;50.888;10.728;2022-10-16T16:49:47;1.05;;;1.02;;
18627;SDS011;9443;50.888;10.728;2022-10-16T16:59:49;2.60;;;1.30;;
18627;SDS011;9443;50.888;10.728;2022-10-16T17:09:49;8.77;;;6.50;;
18627;SDS011;9443;50.888;10.728;2022-10-16T17:19:50;8.18;;;5.22;;
18627;SDS011;9443;50.888;10.728;2022-10-16T17:29:50;8.20;;;5.95;;
18627;SDS011;9443;50.888;10.728;2022-10-16T17:39:53;31.60;;;19.70;;
18627;SDS011;9443;50.888;10.728;2022-10-16T17:49:54;9.85;;;7.43;;
18627;SDS011;9443;50.888;10.728;2022-10-16T17:59:55;6.22;;;5.00;;
18627;SDS011;9443;50.888;10.728;2022-10-16T18:09:56;4.72;;;3.70;;
18627;SDS011;9443;50.888;10.728;2022-10-16T18:19:56;5.60;;;4.27;;
18627;SDS011;9443;50.888;10.728;2022-10-16T18:29:56;4.80;;;4.30;;
18627;SDS011;9443;50.888;10.728;2022-10-16T18:39:57;4.07;;;3.67;;
18627;SDS011;9443;50.888;10.728;2022-10-16T18:50:00;4.97;;;4.03;;
18627;SDS011;9443;50.888;10.728;2022-10-16T19:00:04;12.07;;;7.50;;
18627;SDS011;9443;50.888;10.728;2022-10-16T19:10:07;10.60;;;6.67;;
18627;SDS011;9443;50.888;10.728;2022-10-16T19:20:08;5.53;;;3.03;;
18627;SDS011;9443;50.888;10.728;2022-10-16T19:30:09;5.87;;;4.77;;
18627;SDS011;9443;50.888;10.728;2022-10-16T19:40:12;5.47;;;3.50;;
18627;SDS011;9443;50.888;10.728;2022-10-16T19:50:13;8.33;;;5.00;;
18627;SDS011;9443;50.888;10.728;2022-10-16T20:00:15;7.60;;;4.60;;
18627;SDS011;9443;50.888;10.728;2022-10-16T20:10:16;7.57;;;4.70;;
18627;SDS011;9443;50.888;10.728;2022-10-16T20:20:17;6.80;;;4.43;;
18627;SDS011;9443;50.888;10.728;2022-10-16T20:30:17;7.30;;;4.50;;
18627;SDS011;9443;50.888;10.728;2022-10-16T20:40:17;9.47;;;4.27;;
18627;SDS011;9443;50.888;10.728;2022-10-16T20:50:17;8.10;;;4.87;;
18627;SDS011;9443;50.888;10.728;2022-10-16T21:00:18;7.00;;;4.60;;
18627;SDS011;9443;50.888;10.728;2022-10-16T21:10:19;7.07;;;4.20;;
18627;SDS011;9443;50.888;10.728;2022-10-16T21:20:19;7.03;;;4.67;;
18627;SDS011;9443;50.888;10.728;2022-10-16T21:30:19;19.93;;;11.97;;
18627;SDS011;9443;50.888;10.728;2022-10-16T21:40:20;11.23;;;6.30;;
18627;SDS011;9443;50.888;10.728;2022-10-16T21:50:20;9.43;;;5.53;;
18627;SDS011;9443;50.888;10.728;2022-10-16T22:00:20;6.27;;;4.80;;
18627;SDS011;9443;50.888;10.728;2022-10-16T22:10:21;8.37;;;4.33;;
18627;SDS011;9443;50.888;10.728;2022-10-16T22:20:21;8.90;;;6.00;;
18627;SDS011;9443;50.888;10.728;2022-10-16T22:30:21;7.37;;;5.43;;
18627;SDS011;9443;50.888;10.728;2022-10-16T22:40:22;7.57;;;5.07;;
18627;SDS011;9443;50.888;10.728;2022-10-16T22:50:22;8.07;;;5.07;;
18627;SDS011;9443;50.888;10.728;2022-10-16T23:00:23;6.33;;;4.53;;
18627;SDS011;9443;50.888;10.728;2022-10-16T23:10:23;5.23;;;3.70;;
18627;SDS011;9443;50.888;10.728;2022-10-16T23:20:28;5.60;;;3.83;;
18627;SDS011;9443;50.888;10.728;2022-10-16T23:30:28;6.37;;;4.10;;
18627;SDS011;9443;50.888;10.728;2022-10-16T23:40:29;5.10;;;2.97;;
18627;SDS011;9443;50.888;10.728;2022-10-16T23:50:29;5.60;;;3.47;;
